Terminal Aerodrome Forecast
Issued by NWS

Home | Current Version | Previous Version | Text Only | Print | Product List | Glossary On
Versions: 1 2 3 4 5 6 7 8 9 10 11 12 13 14 15 16
000
FTAK31 PAJN 231914 AAA
TAFAWG
TAF AMD
PAWG 231914Z 2319/2418 VRB06KT P6SM FEW005 BKN035 OVC050
      TEMPO 2319/2323 6SM -RASN SCT005 BKN025 OVC040
     FM240200 11004KT P6SM VCSH SCT025 OVC050
     FM240600 11007KT P6SM OVC050
      AMD LTD TO CLD VIS AND WIND 2406/2415=

USA.gov is the U.S. government's official web portal to all federal, state and local government web resources and services.